Time;durP1;ratioP1;P1;durP2;ratioP2;P2;SDS_P1;SDS_P2;PMS_P1;PMS_P2;Temp;Humidity;BMP_temperature;BMP_pressure;BME280_temperature;BME280_humidity;BME280_pressure;Samples;Min_cycle;Max_cycle;Signal;HPM_P1;HPM_P2
2023/03/22 00:02:06;;;;;;;36.13;28.60;;;;;;;12.62;60.69;99141.56;4973071;28;20019;-78
2023/03/22 00:04:32;;;;;;;41.28;28.00;;;;;;;12.82;61.38;99178.72;4972871;28;20416;-77
2023/03/22 00:06:57;;;;;;;42.60;29.98;;;;;;;12.81;61.18;99161.19;4988057;28;20053;-78
2023/03/22 00:09:23;;;;;;;39.65;28.95;;;;;;;12.64;61.33;99152.00;4973133;28;20109;-78
2023/03/22 00:11:51;;;;;;;37.42;29.30;;;;;;;12.35;61.74;99124.00;4973402;28;20026;-78
2023/03/22 00:14:17;;;;;;;38.58;28.90;;;;;;;12.39;61.90;99135.81;4972930;28;20034;-78
2023/03/22 00:16:44;;;;;;;37.60;28.20;;;;;;;12.51;61.92;99146.63;4972772;28;20114;-79
2023/03/22 00:19:10;;;;;;;37.38;27.67;;;;;;;12.72;62.70;99202.13;4972999;28;20503;-79
2023/03/22 00:21:35;;;;;;;38.78;29.20;;;;;;;12.33;62.72;99163.09;4972687;28;20029;-78
2023/03/22 00:24:01;;;;;;;38.38;30.88;;;;;;;12.70;62.77;99207.63;4987853;28;20054;-78
2023/03/22 00:26:26;;;;;;;43.90;32.45;;;;;;;12.43;62.83;99168.81;4972804;28;20492;-79
2023/03/22 00:28:52;;;;;;;51.13;36.85;;;;;;;12.34;63.19;99162.06;4971239;28;20034;-79
2023/03/22 00:31:18;;;;;;;56.63;39.95;;;;;;;12.01;63.24;99099.25;4972176;28;20026;-79
2023/03/22 00:33:44;;;;;;;51.53;37.47;;;;;;;12.67;63.29;99197.44;4972625;28;20033;-79
2023/03/22 00:36:11;;;;;;;48.70;36.42;;;;;;;12.07;63.39;99106.41;4972676;28;20027;-80
2023/03/22 00:38:37;;;;;;;55.33;37.70;;;;;;;12.45;64.12;99165.97;4987468;28;20519;-79
2023/03/22 00:41:18;;;;;;;54.72;38.20;;;;;;;12.64;64.76;99202.31;4972552;28;20061;-79
2023/03/22 00:43:44;;;;;;;57.72;39.90;;;;;;;12.56;63.92;99183.94;4972630;28;20027;-78
2023/03/22 00:46:11;;;;;;;58.53;41.58;;;;;;;12.68;64.06;99208.84;4972669;28;20507;-79
2023/03/22 00:48:38;;;;;;;65.15;45.13;;;;;;;12.12;64.19;99112.94;4972889;28;20026;-78
2023/03/22 00:51:04;;;;;;;71.97;47.42;;;;;;;12.69;64.20;99206.00;4973053;28;20023;-79
2023/03/22 00:53:31;;;;;;;77.43;49.47;;;;;;;12.27;63.98;99132.94;4987803;28;20630;-78
2023/03/22 00:55:57;;;;;;;94.63;54.72;;;;;;;12.09;64.13;99117.59;4973071;28;20514;-78
2023/03/22 00:58:23;;;;;;;131.90;64.25;;;;;;;12.68;64.57;99203.56;4973002;28;20101;-78
2023/03/22 01:00:48;;;;;;;160.20;75.40;;;;;;;12.40;64.98;99161.28;4972721;28;20536;-78
2023/03/22 01:03:14;;;;;;;210.40;88.15;;;;;;;12.69;64.87;99207.84;4972412;28;20110;-78
2023/03/22 01:05:43;;;;;;;231.23;96.18;;;;;;;12.68;65.02;99207.03;4972582;28;20019;-78
2023/03/22 01:08:09;;;;;;;263.10;102.38;;;;;;;12.35;65.25;99156.56;4972403;28;20077;-78
2023/03/22 01:10:36;;;;;;;264.30;101.90;;;;;;;12.63;64.82;99203.31;4972674;28;20037;-79
2023/03/22 01:13:01;;;;;;;287.17;106.07;;;;;;;12.25;65.17;99142.91;4972584;28;20030;-80
2023/03/22 01:15:27;;;;;;;314.65;115.45;;;;;;;12.53;64.92;99190.44;4972337;28;20031;-80
2023/03/22 01:17:52;;;;;;;312.60;114.47;;;;;;;12.50;65.43;99216.50;4987380;28;20484;-80
2023/03/22 01:20:18;;;;;;;290.13;106.93;;;;;;;12.00;65.40;99134.66;4972345;28;20023;-81
2023/03/22 01:22:44;;;;;;;283.10;110.07;;;;;;;11.94;65.67;99138.09;4971094;28;20027;-81
2023/03/22 01:25:09;;;;;;;234.50;104.22;;;;;;;12.38;66.00;99211.78;4971080;28;20074;-81
2023/03/22 01:27:35;;;;;;;230.38;104.47;;;;;;;11.61;65.95;99087.63;4970899;28;20022;-81
2023/03/22 01:30:01;;;;;;;222.25;101.38;;;;;;;11.33;66.50;99063.06;4986877;28;20022;-82
2023/03/22 01:32:26;;;;;;;199.35;93.75;;;;;;;11.80;66.71;99133.72;4972399;28;20047;-83
2023/03/22 01:34:52;;;;;;;174.50;84.55;;;;;;;12.07;66.60;99167.25;4972238;28;20054;-82
2023/03/22 01:37:18;;;;;;;187.10;90.88;;;;;;;11.94;66.05;99156.63;4972002;28;20033;-82
2023/03/22 01:39:43;;;;;;;159.38;81.43;;;;;;;12.04;66.29;99157.06;4972150;28;20046;-81
2023/03/22 01:42:13;;;;;;;149.00;76.45;;;;;;;12.08;66.47;99178.66;4971852;28;20503;-81
2023/03/22 01:44:42;;;;;;;107.78;58.28;;;;;;;12.40;66.72;99208.94;4975582;28;20149;-81
2023/03/22 01:47:10;;;;;;;87.43;50.42;;;;;;;12.42;66.39;99220.13;4975500;28;20042;-80
2023/03/22 01:49:36;;;;;;;63.88;41.47;;;;;;;11.90;66.43;99128.09;4975485;28;20523;-79
2023/03/22 01:52:10;;;;;;;58.05;38.00;;;;;;;12.37;66.59;99204.84;4975426;28;20027;-79
2023/03/22 01:54:39;;;;;;;47.83;30.05;;;;;;;12.33;66.36;99205.44;4975604;28;20109;-80
2023/03/22 01:57:04;;;;;;;38.38;26.38;;;;;;;12.12;67.12;99187.03;4974070;28;20459;-79
2023/03/22 01:59:30;;;;;;;37.28;26.67;;;;;;;12.03;67.58;99181.91;4990049;28;20043;-82
2023/03/22 02:01:59;;;;;;;31.13;23.30;;;;;;;11.86;67.08;99162.03;4975349;28;20054;-80
2023/03/22 02:04:32;;;;;;;24.23;19.05;;;;;;;11.52;66.73;99095.91;4975353;28;20546;-79
2023/03/22 02:07:02;;;;;;;27.52;20.25;;;;;;;12.27;67.58;99212.34;4975396;28;20022;-80
2023/03/22 02:09:28;;;;;;;23.60;18.13;;;;;;;12.19;67.38;99206.41;4975336;28;20122;-80
2023/03/22 02:12:00;;;;;;;34.38;21.73;;;;;;;12.25;67.16;99213.56;4990457;28;20022;-80
2023/03/22 02:14:49;;;;;;;38.70;23.02;;;;;;;12.15;67.31;99205.97;4973963;28;20061;-79
2023/03/22 02:17:37;;;;;;;46.30;26.65;;;;;;;12.22;68.07;99204.19;4973776;28;20093;-80
2023/03/22 02:20:37;;;;;;;51.53;28.58;;;;;;;11.68;67.27;99122.84;4975212;28;20034;-79
2023/03/22 02:23:52;;;;;;;49.72;27.40;;;;;;;12.21;68.09;99207.84;4975150;28;20112;-79
2023/03/22 02:26:53;;;;;;;41.20;24.65;;;;;;;11.70;67.59;99120.00;4975130;28;20157;-80
2023/03/22 02:29:21;;;;;;;53.03;31.33;;;;;;;12.18;67.42;99196.81;4974789;28;20018;-80
2023/03/22 02:32:11;;;;;;;49.67;29.80;;;;;;;12.14;68.31;99203.53;4974723;28;20117;-81
2023/03/22 02:35:00;;;;;;;60.50;35.55;;;;;;;12.06;67.47;99205.31;4974569;28;20030;-82
2023/03/22 02:37:45;;;;;;;77.32;41.83;;;;;;;11.52;68.45;99132.94;4974497;28;20507;-81
2023/03/22 02:40:16;;;;;;;82.25;45.53;;;;;;;11.75;68.37;99165.19;4974586;28;20038;-80
2023/03/22 02:43:15;;;;;;;93.18;49.85;;;;;;;11.69;68.41;99147.47;4974569;28;20030;-80
2023/03/22 02:45:51;;;;;;;104.57;51.55;;;;;;;11.42;68.54;99094.44;4974028;28;20035;-79
2023/03/22 02:48:21;;;;;;;107.65;54.55;;;;;;;11.61;68.41;99114.06;4974516;28;20027;-79
2023/03/22 02:50:51;;;;;;;106.95;55.67;;;;;;;11.99;68.51;99167.44;4974275;28;20050;-78
2023/03/22 02:53:26;;;;;;;67.07;37.33;;;;;;;11.95;68.63;99168.84;4974031;28;20076;-78
2023/03/22 02:56:02;;;;;;;57.10;31.38;;;;;;;11.50;68.87;99119.09;4974557;28;20495;-77
2023/03/22 02:58:36;;;;;;;40.20;24.35;;;;;;;11.77;68.64;99157.88;4974466;28;20558;-77
2023/03/22 03:01:06;;;;;;;26.20;17.45;;;;;;;11.33;68.66;99111.47;4974222;28;20082;-77
2023/03/22 03:03:36;;;;;;;19.98;14.85;;;;;;;11.23;69.36;99089.03;4974160;28;20082;-76
2023/03/22 03:06:08;;;;;;;18.48;12.52;;;;;;;10.91;69.39;99058.69;4974180;28;20019;-77
2023/03/22 03:08:37;;;;;;;17.30;12.68;;;;;;;11.16;68.84;99096.09;4974286;28;20106;-76
2023/03/22 03:11:02;;;;;;;14.45;11.18;;;;;;;10.94;69.34;99080.25;4974156;28;20031;-77
2023/03/22 03:13:27;;;;;;;11.15;9.85;;;;;;;10.98;69.23;99085.97;4988972;28;20025;-78
2023/03/22 03:15:57;;;;;;;12.52;10.20;;;;;;;11.50;69.46;99177.25;4973715;28;20111;-77
2023/03/22 03:18:25;;;;;;;13.27;11.15;;;;;;;11.53;69.27;99180.31;4974292;28;20435;-77
2023/03/22 03:21:41;;;;;;;13.70;11.88;;;;;;;11.54;69.45;99183.78;4974100;28;20030;-77
2023/03/22 03:24:18;;;;;;;15.35;13.57;;;;;;;11.49;69.44;99179.06;4972665;28;20042;-77
2023/03/22 03:26:46;;;;;;;18.95;15.77;;;;;;;11.53;69.07;99180.31;4973706;28;20505;-77
2023/03/22 03:29:25;;;;;;;17.40;15.52;;;;;;;11.08;69.66;99110.25;4973681;28;20507;-78
2023/03/22 03:31:56;;;;;;;18.20;15.40;;;;;;;11.57;69.75;99186.03;4973736;28;20022;-77
2023/03/22 03:34:48;;;;;;;16.97;15.17;;;;;;;11.42;69.36;99160.53;4972560;28;20554;-78
2023/03/22 03:37:21;;;;;;;17.67;14.80;;;;;;;11.52;69.40;99177.88;4973873;28;20500;-77
2023/03/22 03:40:12;;;;;;;19.50;15.93;;;;;;;11.48;69.50;99168.69;4973552;28;20130;-77
2023/03/22 03:42:45;;;;;;;22.45;16.33;;;;;;;11.61;68.84;99187.28;4983783;28;20124;-79
2023/03/22 03:45:12;;;;;;;34.40;21.73;;;;;;;11.64;68.86;99181.63;4973529;28;20049;-79
2023/03/22 03:47:38;;;;;;;30.63;22.70;;;;;;;11.71;68.90;99178.00;4988331;28;20507;-79
2023/03/22 03:50:05;;;;;;;32.60;22.42;;;;;;;11.93;68.65;99209.72;4973355;28;20018;-79
2023/03/22 03:52:30;;;;;;;30.67;23.23;;;;;;;11.45;68.88;99146.91;4973164;28;20026;-77
2023/03/22 03:54:56;;;;;;;31.88;22.70;;;;;;;11.48;68.72;99142.25;4973151;28;20523;-77
2023/03/22 03:57:21;;;;;;;28.50;22.60;;;;;;;11.34;68.83;99112.28;4973411;28;20081;-77
2023/03/22 03:59:47;;;;;;;27.80;22.27;;;;;;;11.97;68.45;99221.56;4973113;28;20058;-78
2023/03/22 04:02:12;;;;;;;29.90;23.42;;;;;;;11.61;68.77;99158.19;4973281;28;20054;-77
2023/03/22 04:04:38;;;;;;;29.77;25.20;;;;;;;11.86;69.40;99199.06;4988032;28;20037;-77
2023/03/22 04:07:05;;;;;;;34.75;26.98;;;;;;;11.39;68.83;99117.81;4972584;28;20011;-77
2023/03/22 04:09:34;;;;;;;36.40;26.77;;;;;;;11.97;68.71;99216.25;4987973;28;20026;-77
2023/03/22 04:11:59;;;;;;;48.47;35.40;;;;;;;11.48;69.08;99164.22;4988035;28;20026;-77
2023/03/22 04:14:26;;;;;;;55.40;37.47;;;;;;;11.64;69.12;99185.06;4972901;28;20018;-77
2023/03/22 04:16:52;;;;;;;67.43;43.25;;;;;;;11.87;68.91;99232.44;4971527;28;20114;-77
2023/03/22 04:19:18;;;;;;;66.22;42.75;;;;;;;11.88;69.40;99243.84;4987698;28;20054;-77
2023/03/22 04:21:44;;;;;;;80.88;46.97;;;;;;;11.31;68.34;99155.78;4972750;28;20069;-77
2023/03/22 04:24:11;;;;;;;114.50;56.33;;;;;;;11.53;68.99;99184.78;4972871;28;20030;-77
2023/03/22 04:26:36;;;;;;;114.82;57.78;;;;;;;11.89;69.18;99240.19;4972781;28;20408;-77
2023/03/22 04:29:03;;;;;;;131.73;63.72;;;;;;;11.88;69.25;99241.22;4987723;28;20027;-77
2023/03/22 04:31:29;;;;;;;140.27;68.65;;;;;;;11.89;69.15;99251.63;4972748;28;20081;-77
2023/03/22 04:33:55;;;;;;;153.77;74.18;;;;;;;11.41;68.56;99174.75;4972616;28;20054;-77
2023/03/22 04:36:25;;;;;;;139.75;70.22;;;;;;;11.51;68.61;99198.22;4971410;28;20488;-77
2023/03/22 04:38:51;;;;;;;123.90;64.78;;;;;;;11.76;68.31;99254.13;4972844;28;20025;-77
2023/03/22 04:41:17;;;;;;;109.15;62.67;;;;;;;11.62;68.33;99231.22;4972889;28;20102;-77
2023/03/22 04:43:45;;;;;;;90.90;53.58;;;;;;;11.44;68.69;99206.09;4972811;28;20025;-76
2023/03/22 04:46:12;;;;;;;92.55;51.88;;;;;;;11.69;68.87;99259.34;4972884;28;20061;-78
2023/03/22 04:48:40;;;;;;;93.25;53.13;;;;;;;11.69;68.63;99262.00;4972792;28;20045;-78
2023/03/22 04:51:07;;;;;;;84.57;52.00;;;;;;;11.74;68.93;99262.25;4972565;28;20019;-78
2023/03/22 04:53:37;;;;;;;94.75;53.53;;;;;;;11.58;68.58;99229.97;4987431;28;20075;-78
2023/03/22 04:56:05;;;;;;;109.50;56.35;;;;;;;11.03;68.74;99154.91;4987461;28;20019;-78
2023/03/22 04:58:32;;;;;;;106.97;56.75;;;;;;;11.74;68.43;99261.44;4972397;28;20030;-79
2023/03/22 05:00:57;;;;;;;113.88;57.28;;;;;;;11.63;68.17;99246.09;4972096;28;20055;-79
2023/03/22 05:03:23;;;;;;;128.15;60.60;;;;;;;11.27;68.58;99199.44;4972484;28;20459;-78
2023/03/22 05:05:57;;;;;;;136.98;61.63;;;;;;;11.75;68.54;99260.41;4972463;28;20109;-78
2023/03/22 05:08:23;;;;;;;142.30;66.22;;;;;;;11.74;67.97;99267.53;4972397;28;20027;-78
2023/03/22 05:10:51;;;;;;;145.18;62.70;;;;;;;11.77;68.18;99268.97;4971000;28;20030;-78
2023/03/22 05:13:17;;;;;;;137.27;65.25;;;;;;;11.81;67.69;99266.78;4972373;28;20026;-78
2023/03/22 05:15:42;;;;;;;145.93;64.82;;;;;;;11.09;68.15;99154.13;4971087;28;20046;-79
2023/03/22 05:18:08;;;;;;;138.63;64.88;;;;;;;11.82;68.16;99279.00;4975375;28;20057;-79
2023/03/22 05:20:33;;;;;;;138.48;65.70;;;;;;;11.83;67.97;99275.34;4976225;28;20085;-78
2023/03/22 05:23:01;;;;;;;134.93;64.88;;;;;;;11.46;68.25;99229.69;4991037;28;20106;-79
2023/03/22 05:25:27;;;;;;;119.97;61.50;;;;;;;11.71;68.23;99270.56;4976042;28;20105;-78
2023/03/22 05:27:53;;;;;;;133.25;66.97;;;;;;;11.57;68.62;99265.38;4974781;28;20054;-79
2023/03/22 05:30:19;;;;;;;112.32;57.58;;;;;;;11.75;68.33;99292.16;4975868;28;20047;-78
2023/03/22 05:32:44;;;;;;;101.88;53.58;;;;;;;11.77;68.71;99306.00;4974569;28;20086;-78
2023/03/22 05:35:10;;;;;;;96.53;51.08;;;;;;;11.68;68.28;99309.81;4975746;28;20126;-78
2023/03/22 05:37:37;;;;;;;97.13;54.60;;;;;;;11.67;68.12;99300.22;4975504;28;20029;-78
2023/03/22 05:40:04;;;;;;;93.72;53.42;;;;;;;11.60;68.03;99302.00;4975671;28;20105;-78
2023/03/22 05:42:30;;;;;;;93.45;52.13;;;;;;;11.69;68.88;99314.09;4975758;28;20026;-78
2023/03/22 05:44:55;;;;;;;101.30;54.03;;;;;;;11.24;68.37;99242.09;4975731;28;20047;-78
2023/03/22 05:47:21;;;;;;;93.75;51.95;;;;;;;11.14;68.34;99242.41;4975875;28;20109;-78
2023/03/22 05:49:46;;;;;;;92.03;50.58;;;;;;;11.21;68.08;99260.97;4975569;28;20023;-78
2023/03/22 05:52:11;;;;;;;95.28;50.15;;;;;;;10.86;68.30;99185.22;4975476;28;20026;-78
2023/03/22 05:54:37;;;;;;;89.30;51.25;;;;;;;11.61;68.25;99311.56;4974909;28;20031;-77
2023/03/22 05:57:02;;;;;;;81.78;49.63;;;;;;;11.32;68.19;99257.03;4975416;28;20031;-79
2023/03/22 05:59:28;;;;;;;92.88;51.10;;;;;;;11.73;67.92;99320.63;4975072;28;20046;-77
2023/03/22 06:01:53;;;;;;;85.45;51.80;;;;;;;11.38;67.97;99274.75;4973791;28;20425;-77
2023/03/22 06:04:19;;;;;;;95.47;53.63;;;;;;;11.40;67.89;99292.06;4975197;28;20464;-76
2023/03/22 06:06:45;;;;;;;96.43;52.83;;;;;;;11.83;68.50;99360.81;4975578;28;20007;-77
2023/03/22 06:09:13;;;;;;;95.93;52.38;;;;;;;11.85;68.48;99364.09;4975317;28;20038;-77
2023/03/22 06:11:38;;;;;;;94.00;52.97;;;;;;;11.86;68.38;99360.44;4974873;28;20034;-77
2023/03/22 06:14:04;;;;;;;94.13;52.72;;;;;;;11.23;68.10;99274.81;4975280;28;20018;-77
2023/03/22 06:16:29;;;;;;;93.93;54.47;;;;;;;11.31;67.63;99281.81;4974947;28;20496;-77
2023/03/22 06:18:55;;;;;;;79.50;47.92;;;;;;;11.42;67.52;99300.63;4975423;28;20082;-78
2023/03/22 06:21:20;;;;;;;88.25;50.42;;;;;;;11.79;67.73;99349.00;4975298;28;20121;-78
2023/03/22 06:23:45;;;;;;;80.30;47.50;;;;;;;11.68;67.90;99338.88;4975041;28;20031;-77
2023/03/22 06:26:11;;;;;;;71.82;42.88;;;;;;;11.44;67.63;99309.19;4974745;28;20022;-77
2023/03/22 06:28:36;;;;;;;67.35;43.15;;;;;;;11.84;67.36;99382.81;4973526;28;20035;-78
2023/03/22 06:31:07;;;;;;;58.55;40.38;;;;;;;11.59;67.72;99334.75;4974531;28;20023;-77
2023/03/22 06:33:33;;;;;;;64.07;42.88;;;;;;;11.42;67.91;99307.75;4974844;28;20035;-77
2023/03/22 06:36:00;;;;;;;63.25;42.53;;;;;;;11.43;67.85;99310.19;4974009;28;20037;-77
2023/03/22 06:38:26;;;;;;;68.15;43.10;;;;;;;11.64;67.99;99333.16;4974856;28;20026;-77
2023/03/22 06:40:52;;;;;;;64.88;43.03;;;;;;;11.95;67.60;99388.44;4972540;28;20038;-77
2023/03/22 06:43:17;;;;;;;69.25;43.50;;;;;;;11.55;67.02;99322.91;4973073;28;20029;-77
2023/03/22 06:45:45;;;;;;;67.18;43.38;;;;;;;11.85;67.21;99369.38;4973543;28;20038;-77
2023/03/22 06:48:10;;;;;;;57.38;40.35;;;;;;;11.51;67.65;99316.34;4999822;28;20411;-77
2023/03/22 06:50:37;;;;;;;67.20;42.20;;;;;;;11.72;67.48;99353.38;4958234;28;20026;-77
2023/03/22 06:53:03;;;;;;;73.22;44.42;;;;;;;11.52;67.12;99328.56;4974095;28;20463;-77
2023/03/22 06:55:33;;;;;;;71.68;45.58;;;;;;;11.43;67.24;99298.81;4989354;28;20027;-77
2023/03/22 06:58:02;;;;;;;72.05;45.58;;;;;;;11.74;66.87;99364.56;4973146;28;20439;-77
2023/03/22 07:00:27;;;;;;;68.15;42.38;;;;;;;11.99;67.36;99416.16;4973509;28;20101;-77
2023/03/22 07:02:53;;;;;;;67.00;41.55;;;;;;;11.56;66.98;99337.75;4974318;28;20031;-77
2023/03/22 07:05:19;;;;;;;79.95;46.88;;;;;;;11.38;66.85;99319.69;4973392;28;20031;-77
2023/03/22 07:07:45;;;;;;;77.30;46.70;;;;;;;11.84;67.12;99386.25;4972075;28;20496;-77
2023/03/22 07:10:11;;;;;;;77.05;45.10;;;;;;;11.27;67.00;99293.78;4972207;28;20038;-76
2023/03/22 07:12:37;;;;;;;88.07;49.08;;;;;;;12.00;67.16;99395.78;4972390;28;20030;-77
2023/03/22 07:15:03;;;;;;;72.13;45.08;;;;;;;11.48;66.91;99322.03;4985761;28;20019;-76
2023/03/22 07:17:29;;;;;;;72.55;45.17;;;;;;;11.41;66.67;99316.69;4969647;28;20026;-77
2023/03/22 07:19:54;;;;;;;72.88;45.55;;;;;;;11.77;66.90;99380.91;4972151;28;20023;-77
2023/03/22 07:22:23;;;;;;;65.00;39.42;;;;;;;11.02;66.68;99257.13;4971485;28;20023;-77
2023/03/22 07:24:49;;;;;;;57.58;39.20;;;;;;;11.45;66.93;99331.97;4972353;28;20030;-77
2023/03/22 07:27:15;;;;;;;59.97;38.97;;;;;;;11.51;67.17;99343.63;4971104;28;20110;-76
2023/03/22 07:29:41;;;;;;;54.47;38.90;;;;;;;11.28;67.12;99316.53;4972956;28;20110;-76
2023/03/22 07:32:06;;;;;;;47.45;34.33;;;;;;;11.87;66.66;99415.00;4971728;28;20476;-77
2023/03/22 07:34:32;;;;;;;47.63;33.97;;;;;;;11.65;67.00;99363.06;4972546;28;20500;-77
2023/03/22 07:36:57;;;;;;;50.05;36.13;;;;;;;12.06;67.08;99416.19;4972632;28;20038;-77
2023/03/22 07:39:27;;;;;;;50.97;35.28;;;;;;;12.06;66.32;99416.19;4972031;28;20030;-77
2023/03/22 07:41:53;;;;;;;51.78;35.20;;;;;;;12.01;66.35;99408.00;4968375;28;20042;-76
2023/03/22 07:44:19;;;;;;;44.13;32.15;;;;;;;11.94;66.73;99401.84;4988086;28;20054;-76
2023/03/22 07:46:44;;;;;;;45.28;33.88;;;;;;;12.00;66.21;99412.50;4970606;28;20038;-77
2023/03/22 07:49:09;;;;;;;49.35;34.38;;;;;;;11.60;66.20;99346.94;4973328;28;20492;-77
2023/03/22 07:51:35;;;;;;;45.70;32.42;;;;;;;11.61;66.26;99346.75;4973457;28;20082;-76
2023/03/22 07:54:01;;;;;;;39.72;30.52;;;;;;;11.99;66.38;99420.63;4973394;28;20038;-76
2023/03/22 07:56:26;;;;;;;42.80;31.63;;;;;;;12.05;65.86;99417.22;4971993;28;20110;-76
2023/03/22 07:58:52;;;;;;;48.88;36.10;;;;;;;11.67;65.82;99353.13;4971567;28;20038;-77
2023/03/22 08:01:17;;;;;;;42.53;32.10;;;;;;;11.90;66.06;99384.72;4969563;28;20775;-76
2023/03/22 08:03:43;;;;;;;41.78;32.30;;;;;;;11.57;66.56;99327.00;4970909;28;20049;-76
2023/03/22 08:06:09;;;;;;;40.10;32.08;;;;;;;11.56;66.18;99319.25;4970814;28;20125;-76
2023/03/22 08:08:35;;;;;;;45.30;32.85;;;;;;;12.22;65.83;99423.88;4970981;28;20664;-77
2023/03/22 08:11:02;;;;;;;43.42;33.88;;;;;;;12.25;65.96;99428.78;4984984;28;20057;-76
2023/03/22 08:13:27;;;;;;;48.78;33.80;;;;;;;12.31;65.95;99443.06;4970432;28;20031;-78
2023/03/22 08:15:53;;;;;;;46.60;33.25;;;;;;;12.22;65.96;99415.09;4968718;28;20034;-78
2023/03/22 08:18:18;;;;;;;42.78;32.42;;;;;;;12.35;65.91;99437.22;4971933;28;20487;-78
2023/03/22 08:20:44;;;;;;;40.78;34.13;;;;;;;12.25;65.52;99399.66;4971121;28;20702;-78
2023/03/22 08:23:14;;;;;;;44.85;32.40;;;;;;;12.08;65.51;99369.19;4974134;28;20026;-78
2023/03/22 08:25:41;;;;;;;37.95;30.13;;;;;;;12.07;65.06;99367.56;4983948;28;20424;-78
2023/03/22 08:28:07;;;;;;;49.30;37.97;;;;;;;12.35;65.27;99388.72;4972101;28;20094;-78
2023/03/22 08:30:33;;;;;;;53.83;40.83;;;;;;;12.66;64.94;99438.69;4969761;28;20082;-78
2023/03/22 08:32:58;;;;;;;48.63;37.53;;;;;;;12.63;64.85;99428.44;4972161;28;20030;-78
2023/03/22 08:35:24;;;;;;;47.22;34.55;;;;;;;12.74;64.61;99451.78;5000708;28;20037;-78
2023/03/22 08:37:53;;;;;;;41.92;31.85;;;;;;;12.51;64.77;99409.63;4984063;28;20122;-80
2023/03/22 08:40:18;;;;;;;42.88;31.25;;;;;;;12.49;64.81;99395.75;4974581;28;20106;-78
2023/03/22 08:42:44;;;;;;;40.20;30.67;;;;;;;12.20;64.81;99359.72;4970073;28;20031;-78
2023/03/22 08:45:12;;;;;;;43.80;29.80;;;;;;;12.88;64.70;99448.19;4971677;28;20031;-79
2023/03/22 08:47:40;;;;;;;37.65;30.08;;;;;;;12.31;64.47;99338.00;4984393;28;20029;-79
2023/03/22 08:50:06;;;;;;;34.78;27.08;;;;;;;12.65;63.97;99399.97;4969082;28;20053;-79
2023/03/22 08:52:32;;;;;;;38.63;28.73;;;;;;;12.47;63.75;99363.34;4974967;28;20047;-78
2023/03/22 08:54:57;;;;;;;38.67;29.38;;;;;;;13.11;63.83;99447.91;4979009;28;20033;-78
2023/03/22 08:57:23;;;;;;;37.38;29.45;;;;;;;12.53;63.88;99351.16;4968745;28;20058;-78
2023/03/22 08:59:51;;;;;;;42.55;32.40;;;;;;;13.01;63.65;99420.94;4975147;28;20551;-78
2023/03/22 09:02:16;;;;;;;47.05;32.03;;;;;;;13.00;63.51;99420.13;4979581;28;20022;-78
2023/03/22 09:04:42;;;;;;;40.72;31.52;;;;;;;12.81;63.84;99367.03;4972139;28;20455;-78
2023/03/22 09:07:07;;;;;;;47.13;31.75;;;;;;;13.40;63.60;99454.81;4975026;28;20065;-78
2023/03/22 09:09:33;;;;;;;43.15;32.40;;;;;;;13.10;63.32;99393.25;4966958;28;20459;-78
2023/03/22 09:11:58;;;;;;;44.60;34.63;;;;;;;13.35;63.44;99459.88;4969130;28;20031;-78
2023/03/22 09:14:23;;;;;;;44.30;30.27;;;;;;;12.85;63.20;99353.19;4968743;28;20034;-79
2023/03/22 09:16:50;;;;;;;46.53;33.15;;;;;;;13.49;63.15;99450.16;4970139;28;20035;-79
2023/03/22 09:19:16;;;;;;;39.47;29.52;;;;;;;13.09;62.73;99374.91;4971357;28;20428;-79
2023/03/22 09:21:41;;;;;;;43.42;30.90;;;;;;;13.01;62.54;99352.03;4971313;28;20045;-79
2023/03/22 09:24:07;;;;;;;38.25;28.83;;;;;;;13.46;62.10;99427.50;4971022;28;20030;-79
2023/03/22 09:26:33;;;;;;;35.58;27.98;;;;;;;13.21;62.01;99390.06;4971517;28;20515;-79
2023/03/22 09:28:58;;;;;;;37.28;28.90;;;;;;;13.59;62.03;99450.59;4971313;28;20569;-79
2023/03/22 09:31:23;;;;;;;44.70;29.63;;;;;;;13.39;62.21;99423.19;4974615;28;20023;-78
2023/03/22 09:33:49;;;;;;;34.42;25.80;;;;;;;13.09;61.80;99364.28;4999161;28;20166;-78
2023/03/22 09:36:15;;;;;;;35.42;26.92;;;;;;;13.32;61.66;99394.78;4968113;28;20030;-79
2023/03/22 09:38:41;;;;;;;36.70;25.95;;;;;;;13.61;61.16;99427.34;4969946;28;20023;-79
2023/03/22 09:41:09;;;;;;;39.30;27.85;;;;;;;13.34;61.49;99384.81;4984826;28;20382;-78
2023/03/22 09:43:38;;;;;;;35.42;26.65;;;;;;;13.76;61.32;99441.25;4969398;28;20110;-78
2023/03/22 09:46:10;;;;;;;35.20;25.75;;;;;;;13.17;60.75;99351.72;4969259;28;20507;-78
2023/03/22 09:48:41;;;;;;;40.30;27.40;;;;;;;13.71;60.53;99429.59;4970525;28;20022;-78
2023/03/22 09:51:20;;;;;;;36.00;25.65;;;;;;;13.32;60.12;99362.16;4970433;28;20037;-78
2023/03/22 09:53:45;;;;;;;32.28;24.05;;;;;;;13.35;59.88;99353.78;4985552;28;20488;-78
2023/03/22 09:56:19;;;;;;;38.30;26.95;;;;;;;14.02;59.82;99434.34;4967237;28;20053;-78
2023/03/22 09:58:50;;;;;;;35.53;25.90;;;;;;;14.17;59.31;99448.28;4967530;28;20512;-78
2023/03/22 10:01:21;;;;;;;32.00;25.60;;;;;;;14.10;59.27;99437.63;4969480;28;20042;-78
2023/03/22 10:04:00;;;;;;;37.47;28.37;;;;;;;14.28;59.05;99448.47;4969342;28;20027;-78
2023/03/22 10:06:26;;;;;;;33.17;25.00;;;;;;;14.34;58.34;99430.09;4971878;28;20021;-78
2023/03/22 10:08:57;;;;;;;29.98;23.13;;;;;;;14.54;57.92;99455.66;4974282;28;20023;-78
2023/03/22 10:11:31;;;;;;;33.42;25.35;;;;;;;14.63;57.86;99450.94;4973148;28;20142;-79
2023/03/22 10:14:00;;;;;;;32.67;24.85;;;;;;;14.61;57.06;99471.59;4972421;28;20067;-78
2023/03/22 10:16:31;;;;;;;31.92;24.17;;;;;;;13.88;56.78;99359.19;4973873;28;20031;-78
2023/03/22 10:19:18;;;;;;;31.00;24.83;;;;;;;14.12;56.87;99405.56;4974786;28;20023;-78
2023/03/22 10:21:47;;;;;;;33.38;25.23;;;;;;;14.44;56.84;99457.09;4974816;28;20030;-78
2023/03/22 10:24:18;;;;;;;33.10;24.17;;;;;;;14.52;56.75;99460.34;4964265;28;20456;-78
2023/03/22 10:26:46;;;;;;;32.67;26.52;;;;;;;14.30;57.04;99421.72;4974709;28;20025;-78
2023/03/22 10:29:37;;;;;;;33.70;25.40;;;;;;;14.58;56.31;99462.19;4974193;28;20566;-78
2023/03/22 10:32:16;;;;;;;31.50;24.38;;;;;;;14.26;56.76;99418.66;4974528;28;20030;-78
2023/03/22 10:34:42;;;;;;;35.28;26.83;;;;;;;14.51;57.07;99461.38;4973925;28;20041;-78
2023/03/22 10:37:16;;;;;;;35.45;23.52;;;;;;;14.54;57.11;99460.97;4989054;28;20396;-78
2023/03/22 10:39:49;;;;;;;30.25;23.50;;;;;;;14.47;56.67;99454.84;4987497;28;20518;-78
2023/03/22 10:42:19;;;;;;;28.50;23.48;;;;;;;14.29;56.95;99410.28;4973818;28;20054;-78
2023/03/22 10:44:49;;;;;;;31.88;21.92;;;;;;;14.65;56.36;99446.25;4972072;28;20018;-78
2023/03/22 10:47:18;;;;;;;26.65;23.15;;;;;;;14.81;56.09;99453.78;4976856;28;20053;-78
2023/03/22 10:49:48;;;;;;;29.27;23.95;;;;;;;14.56;55.62;99357.97;4972898;28;20062;-78
2023/03/22 10:52:20;;;;;;;25.20;21.20;;;;;;;15.23;54.89;99436.50;4980071;28;20042;-78
2023/03/22 10:54:45;;;;;;;24.70;21.70;;;;;;;14.78;54.39;99347.88;4974828;28;20042;-78
2023/03/22 10:57:10;;;;;;;30.95;23.73;;;;;;;15.08;53.80;99376.63;4975793;28;20027;-78
2023/03/22 10:59:50;;;;;;;22.73;18.98;;;;;;;15.13;53.03;99380.28;4975463;28;20356;-79
2023/03/22 11:02:31;;;;;;;22.10;16.95;;;;;;;15.44;53.00;99408.78;4973122;28;20031;-78
2023/03/22 11:05:06;;;;;;;23.02;18.92;;;;;;;15.57;53.02;99434.50;4989840;28;20054;-78
2023/03/22 11:07:43;;;;;;;21.55;18.02;;;;;;;15.61;53.01;99421.66;4972394;28;20412;-78
2023/03/22 11:10:08;;;;;;;23.67;18.60;;;;;;;15.62;53.25;99426.75;4971300;28;20034;-78
2023/03/22 11:12:39;;;;;;;19.63;16.27;;;;;;;15.10;53.16;99367.41;4974306;28;20039;-78
2023/03/22 11:15:06;;;;;;;23.48;17.77;;;;;;;15.45;53.42;99426.38;4972008;28;20030;-78
2023/03/22 11:17:32;;;;;;;24.00;17.60;;;;;;;15.48;53.65;99412.66;4972129;28;20114;-79
2023/03/22 11:20:00;;;;;;;23.15;16.90;;;;;;;15.13;53.36;99353.69;4970701;28;20034;-78
2023/03/22 11:22:36;;;;;;;20.60;16.92;;;;;;;15.09;52.96;99381.72;4970008;28;20035;-78